sensor_id;sensor_type;location;lat;lon;timestamp;temperature;humidity
46217;DHT22;47258;59.424;13.482;2022-07-18T00:01:06;16.20;99.90
46217;DHT22;47258;59.424;13.482;2022-07-18T00:03:34;16.20;99.90
46217;DHT22;47258;59.424;13.482;2022-07-18T00:06:01;16.20;99.90
46217;DHT22;47258;59.424;13.482;2022-07-18T00:08:28;16.20;99.90
46217;DHT22;47258;59.424;13.482;2022-07-18T00:10:55;16.10;99.90
46217;DHT22;47258;59.424;13.482;2022-07-18T00:13:22;16.00;99.90
46217;DHT22;47258;59.424;13.482;2022-07-18T00:15:49;16.00;99.90
46217;DHT22;47258;59.424;13.482;2022-07-18T00:18:16;16.00;99.90
46217;DHT22;47258;59.424;13.482;2022-07-18T00:20:44;16.00;99.90
46217;DHT22;47258;59.424;13.482;2022-07-18T00:23:11;15.90;99.90
46217;DHT22;47258;59.424;13.482;2022-07-18T00:25:38;15.90;99.90
46217;DHT22;47258;59.424;13.482;2022-07-18T00:28:05;15.90;99.90
46217;DHT22;47258;59.424;13.482;2022-07-18T00:30:32;15.90;99.90
46217;DHT22;47258;59.424;13.482;2022-07-18T00:32:59;15.90;99.90
46217;DHT22;47258;59.424;13.482;2022-07-18T00:35:26;15.90;99.90
46217;DHT22;47258;59.424;13.482;2022-07-18T00:37:54;15.90;99.90
46217;DHT22;47258;59.424;13.482;2022-07-18T00:40:21;15.90;99.90
46217;DHT22;47258;59.424;13.482;2022-07-18T00:42:48;15.90;99.90
46217;DHT22;47258;59.424;13.482;2022-07-18T00:45:15;15.90;99.90
46217;DHT22;47258;59.424;13.482;2022-07-18T00:47:42;15.90;99.90
46217;DHT22;47258;59.424;13.482;2022-07-18T00:50:10;15.90;99.90
46217;DHT22;47258;59.424;13.482;2022-07-18T00:52:37;15.90;99.90
46217;DHT22;47258;59.424;13.482;2022-07-18T00:55:07;15.90;99.90
46217;DHT22;47258;59.424;13.482;2022-07-18T00:57:34;15.90;99.90
46217;DHT22;47258;59.424;13.482;2022-07-18T01:00:02;15.80;99.90
46217;DHT22;47258;59.424;13.482;2022-07-18T01:02:47;15.80;99.90
46217;DHT22;47258;59.424;13.482;2022-07-18T01:05:14;15.80;99.90
46217;DHT22;47258;59.424;13.482;2022-07-18T01:07:41;15.70;99.90
46217;DHT22;47258;59.424;13.482;2022-07-18T01:10:10;15.70;99.90
46217;DHT22;47258;59.424;13.482;2022-07-18T01:12:37;15.70;99.90
46217;DHT22;47258;59.424;13.482;2022-07-18T01:15:05;15.70;99.90
46217;DHT22;47258;59.424;13.482;2022-07-18T01:17:32;15.70;99.90
46217;DHT22;47258;59.424;13.482;2022-07-18T01:19:59;15.70;99.90
46217;DHT22;47258;59.424;13.482;2022-07-18T01:22:27;15.70;99.90
46217;DHT22;47258;59.424;13.482;2022-07-18T01:24:54;15.70;99.90
46217;DHT22;47258;59.424;13.482;2022-07-18T01:27:21;15.60;99.90
46217;DHT22;47258;59.424;13.482;2022-07-18T01:29:50;15.60;99.90
46217;DHT22;47258;59.424;13.482;2022-07-18T01:32:18;15.60;99.90
46217;DHT22;47258;59.424;13.482;2022-07-18T01:34:46;15.60;99.90
46217;DHT22;47258;59.424;13.482;2022-07-18T01:37:13;15.60;99.90
46217;DHT22;47258;59.424;13.482;2022-07-18T01:39:44;15.50;99.90
46217;DHT22;47258;59.424;13.482;2022-07-18T01:42:13;15.50;99.90
46217;DHT22;47258;59.424;13.482;2022-07-18T01:44:42;15.40;99.90
46217;DHT22;47258;59.424;13.482;2022-07-18T01:47:10;15.40;99.90
46217;DHT22;47258;59.424;13.482;2022-07-18T01:49:38;15.40;99.90
46217;DHT22;47258;59.424;13.482;2022-07-18T01:52:06;15.30;99.90
46217;DHT22;47258;59.424;13.482;2022-07-18T01:54:34;15.30;99.90
46217;DHT22;47258;59.424;13.482;2022-07-18T01:57:06;15.30;99.90
46217;DHT22;47258;59.424;13.482;2022-07-18T01:59:34;15.30;99.90
46217;DHT22;47258;59.424;13.482;2022-07-18T02:02:02;15.30;99.90
46217;DHT22;47258;59.424;13.482;2022-07-18T02:04:30;15.20;99.90
46217;DHT22;47258;59.424;13.482;2022-07-18T02:07:14;15.20;99.90
46217;DHT22;47258;59.424;13.482;2022-07-18T02:09:41;15.20;99.90
46217;DHT22;47258;59.424;13.482;2022-07-18T02:12:09;15.20;99.90
46217;DHT22;47258;59.424;13.482;2022-07-18T02:14:36;15.20;99.90
46217;DHT22;47258;59.424;13.482;2022-07-18T02:17:03;15.20;99.90
46217;DHT22;47258;59.424;13.482;2022-07-18T02:19:30;15.20;99.90
46217;DHT22;47258;59.424;13.482;2022-07-18T02:21:57;15.20;99.90
46217;DHT22;47258;59.424;13.482;2022-07-18T02:24:24;15.20;99.90
46217;DHT22;47258;59.424;13.482;2022-07-18T02:26:51;15.20;99.90
46217;DHT22;47258;59.424;13.482;2022-07-18T02:29:19;15.20;99.90
46217;DHT22;47258;59.424;13.482;2022-07-18T02:31:46;15.20;99.90
46217;DHT22;47258;59.424;13.482;2022-07-18T02:34:13;15.20;99.90
46217;DHT22;47258;59.424;13.482;2022-07-18T02:36:41;15.20;99.90
46217;DHT22;47258;59.424;13.482;2022-07-18T02:39:08;15.10;99.90
46217;DHT22;47258;59.424;13.482;2022-07-18T02:41:36;15.10;99.90
46217;DHT22;47258;59.424;13.482;2022-07-18T02:44:03;15.10;99.90
46217;DHT22;47258;59.424;13.482;2022-07-18T02:46:32;15.10;99.90
46217;DHT22;47258;59.424;13.482;2022-07-18T02:48:59;15.10;99.90
46217;DHT22;47258;59.424;13.482;2022-07-18T02:51:26;15.10;99.90
46217;DHT22;47258;59.424;13.482;2022-07-18T02:53:53;15.10;99.90
46217;DHT22;47258;59.424;13.482;2022-07-18T02:56:20;15.10;99.90
46217;DHT22;47258;59.424;13.482;2022-07-18T02:58:47;15.10;99.90
46217;DHT22;47258;59.424;13.482;2022-07-18T03:01:14;15.10;99.90
46217;DHT22;47258;59.424;13.482;2022-07-18T03:03:42;15.10;99.90
46217;DHT22;47258;59.424;13.482;2022-07-18T03:06:09;15.10;99.90
46217;DHT22;47258;59.424;13.482;2022-07-18T03:08:36;15.10;99.90
46217;DHT22;47258;59.424;13.482;2022-07-18T03:11:03;15.10;99.90
46217;DHT22;47258;59.424;13.482;2022-07-18T03:13:30;15.10;99.90
46217;DHT22;47258;59.424;13.482;2022-07-18T03:15:58;15.10;99.90
46217;DHT22;47258;59.424;13.482;2022-07-18T03:18:25;15.10;99.90
46217;DHT22;47258;59.424;13.482;2022-07-18T03:20:54;15.10;99.90
46217;DHT22;47258;59.424;13.482;2022-07-18T03:23:20;15.20;99.90
46217;DHT22;47258;59.424;13.482;2022-07-18T03:25:47;15.20;99.90
46217;DHT22;47258;59.424;13.482;2022-07-18T03:28:14;15.20;99.90
46217;DHT22;47258;59.424;13.482;2022-07-18T03:30:41;15.30;99.90
46217;DHT22;47258;59.424;13.482;2022-07-18T03:33:09;15.30;99.90
46217;DHT22;47258;59.424;13.482;2022-07-18T03:35:36;15.30;99.90
46217;DHT22;47258;59.424;13.482;2022-07-18T03:38:04;15.30;99.90
46217;DHT22;47258;59.424;13.482;2022-07-18T03:40:32;15.30;99.90
46217;DHT22;47258;59.424;13.482;2022-07-18T03:42:59;15.30;99.90
46217;DHT22;47258;59.424;13.482;2022-07-18T03:45:26;15.20;99.90
46217;DHT22;47258;59.424;13.482;2022-07-18T03:47:53;15.20;99.90
46217;DHT22;47258;59.424;13.482;2022-07-18T03:50:20;15.20;99.90
46217;DHT22;47258;59.424;13.482;2022-07-18T03:52:47;15.30;99.90
46217;DHT22;47258;59.424;13.482;2022-07-18T03:55:16;15.30;99.90
46217;DHT22;47258;59.424;13.482;2022-07-18T03:57:43;15.30;99.90
46217;DHT22;47258;59.424;13.482;2022-07-18T04:00:10;15.40;99.90
46217;DHT22;47258;59.424;13.482;2022-07-18T04:02:38;15.50;99.90
46217;DHT22;47258;59.424;13.482;2022-07-18T04:05:06;15.60;99.90
46217;DHT22;47258;59.424;13.482;2022-07-18T04:07:33;15.60;99.90
46217;DHT22;47258;59.424;13.482;2022-07-18T04:10:00;15.60;99.90
46217;DHT22;47258;59.424;13.482;2022-07-18T04:12:28;15.70;99.90
46217;DHT22;47258;59.424;13.482;2022-07-18T04:14:55;15.60;99.90
46217;DHT22;47258;59.424;13.482;2022-07-18T04:17:22;15.60;99.90
46217;DHT22;47258;59.424;13.482;2022-07-18T04:19:49;15.70;99.90
46217;DHT22;47258;59.424;13.482;2022-07-18T04:22:17;15.70;99.90
46217;DHT22;47258;59.424;13.482;2022-07-18T04:24:44;15.80;99.90
46217;DHT22;47258;59.424;13.482;2022-07-18T04:27:11;15.90;99.90
46217;DHT22;47258;59.424;13.482;2022-07-18T04:29:40;15.90;99.90
46217;DHT22;47258;59.424;13.482;2022-07-18T04:32:08;16.00;99.90
46217;DHT22;47258;59.424;13.482;2022-07-18T04:34:35;16.00;99.90
46217;DHT22;47258;59.424;13.482;2022-07-18T04:37:02;16.10;99.90
46217;DHT22;47258;59.424;13.482;2022-07-18T04:39:29;16.10;99.90
46217;DHT22;47258;59.424;13.482;2022-07-18T04:41:56;16.20;99.90
46217;DHT22;47258;59.424;13.482;2022-07-18T04:44:23;16.30;99.90
46217;DHT22;47258;59.424;13.482;2022-07-18T04:46:51;16.30;99.90
46217;DHT22;47258;59.424;13.482;2022-07-18T04:49:18;16.40;99.90
46217;DHT22;47258;59.424;13.482;2022-07-18T04:51:45;16.40;99.90
46217;DHT22;47258;59.424;13.482;2022-07-18T04:54:12;16.50;99.90
46217;DHT22;47258;59.424;13.482;2022-07-18T04:56:39;16.60;99.90
46217;DHT22;47258;59.424;13.482;2022-07-18T04:59:06;16.80;99.90
46217;DHT22;47258;59.424;13.482;2022-07-18T05:01:33;16.90;99.90
46217;DHT22;47258;59.424;13.482;2022-07-18T05:04:02;17.00;99.90
46217;DHT22;47258;59.424;13.482;2022-07-18T05:06:29;17.00;99.90
46217;DHT22;47258;59.424;13.482;2022-07-18T05:08:56;17.10;99.90
46217;DHT22;47258;59.424;13.482;2022-07-18T05:11:23;17.10;99.90
46217;DHT22;47258;59.424;13.482;2022-07-18T05:13:50;17.10;99.90
46217;DHT22;47258;59.424;13.482;2022-07-18T05:16:17;17.20;99.90
46217;DHT22;47258;59.424;13.482;2022-07-18T05:18:44;17.20;99.90
46217;DHT22;47258;59.424;13.482;2022-07-18T05:21:12;17.30;99.90
46217;DHT22;47258;59.424;13.482;2022-07-18T05:23:39;17.30;99.90
46217;DHT22;47258;59.424;13.482;2022-07-18T05:26:06;17.30;99.90
46217;DHT22;47258;59.424;13.482;2022-07-18T05:28:33;17.30;99.90
46217;DHT22;47258;59.424;13.482;2022-07-18T05:31:00;17.30;99.90
46217;DHT22;47258;59.424;13.482;2022-07-18T05:33:27;17.40;99.90
46217;DHT22;47258;59.424;13.482;2022-07-18T05:35:54;17.40;99.90
46217;DHT22;47258;59.424;13.482;2022-07-18T05:38:23;17.50;99.90
46217;DHT22;47258;59.424;13.482;2022-07-18T05:40:50;17.60;99.90
46217;DHT22;47258;59.424;13.482;2022-07-18T05:43:17;17.60;99.90
46217;DHT22;47258;59.424;13.482;2022-07-18T05:45:44;17.70;99.90
46217;DHT22;47258;59.424;13.482;2022-07-18T05:48:11;17.70;99.90
46217;DHT22;47258;59.424;13.482;2022-07-18T05:50:38;17.70;99.90
46217;DHT22;47258;59.424;13.482;2022-07-18T05:53:04;17.70;99.90
46217;DHT22;47258;59.424;13.482;2022-07-18T05:55:33;17.70;99.90
46217;DHT22;47258;59.424;13.482;2022-07-18T05:58:00;17.70;99.90
46217;DHT22;47258;59.424;13.482;2022-07-18T06:00:27;17.70;99.90
46217;DHT22;47258;59.424;13.482;2022-07-18T06:02:55;17.70;99.90
46217;DHT22;47258;59.424;13.482;2022-07-18T06:05:22;17.70;99.90
46217;DHT22;47258;59.424;13.482;2022-07-18T06:07:49;17.70;99.90
46217;DHT22;47258;59.424;13.482;2022-07-18T06:10:17;17.70;99.90
46217;DHT22;47258;59.424;13.482;2022-07-18T06:12:45;17.70;99.90
46217;DHT22;47258;59.424;13.482;2022-07-18T06:15:13;17.70;99.90
46217;DHT22;47258;59.424;13.482;2022-07-18T06:17:41;17.70;99.90
46217;DHT22;47258;59.424;13.482;2022-07-18T06:20:08;17.80;99.90
46217;DHT22;47258;59.424;13.482;2022-07-18T06:22:36;17.80;99.90
46217;DHT22;47258;59.424;13.482;2022-07-18T06:25:04;17.90;99.90
46217;DHT22;47258;59.424;13.482;2022-07-18T06:27:32;17.90;99.90
46217;DHT22;47258;59.424;13.482;2022-07-18T06:30:00;17.90;99.90
46217;DHT22;47258;59.424;13.482;2022-07-18T06:32:30;18.00;99.90
46217;DHT22;47258;59.424;13.482;2022-07-18T06:34:57;18.00;99.90
46217;DHT22;47258;59.424;13.482;2022-07-18T06:37:24;18.00;99.90
46217;DHT22;47258;59.424;13.482;2022-07-18T06:39:50;18.00;99.90
46217;DHT22;47258;59.424;13.482;2022-07-18T06:42:17;18.10;99.90
46217;DHT22;47258;59.424;13.482;2022-07-18T06:44:44;18.00;99.90
46217;DHT22;47258;59.424;13.482;2022-07-18T06:47:13;18.10;99.90
46217;DHT22;47258;59.424;13.482;2022-07-18T06:49:40;18.10;99.90
46217;DHT22;47258;59.424;13.482;2022-07-18T06:52:07;18.20;99.90
46217;DHT22;47258;59.424;13.482;2022-07-18T06:54:37;18.20;99.90
46217;DHT22;47258;59.424;13.482;2022-07-18T06:57:06;18.30;99.90
46217;DHT22;47258;59.424;13.482;2022-07-18T06:59:35;18.30;99.90
46217;DHT22;47258;59.424;13.482;2022-07-18T07:02:02;18.30;99.90
46217;DHT22;47258;59.424;13.482;2022-07-18T07:04:31;18.30;99.90
46217;DHT22;47258;59.424;13.482;2022-07-18T07:06:58;18.40;99.90
46217;DHT22;47258;59.424;13.482;2022-07-18T07:09:25;18.40;99.90
46217;DHT22;47258;59.424;13.482;2022-07-18T07:11:52;18.40;99.90
46217;DHT22;47258;59.424;13.482;2022-07-18T07:14:19;18.40;99.90
46217;DHT22;47258;59.424;13.482;2022-07-18T07:16:46;18.40;99.90
46217;DHT22;47258;59.424;13.482;2022-07-18T07:19:13;18.40;99.90
46217;DHT22;47258;59.424;13.482;2022-07-18T07:21:42;18.40;99.90
46217;DHT22;47258;59.424;13.482;2022-07-18T07:24:09;18.40;99.90
46217;DHT22;47258;59.424;13.482;2022-07-18T07:26:36;18.40;99.90
46217;DHT22;47258;59.424;13.482;2022-07-18T07:29:03;18.40;99.90
46217;DHT22;47258;59.424;13.482;2022-07-18T07:31:30;18.50;99.90
46217;DHT22;47258;59.424;13.482;2022-07-18T07:33:57;18.50;99.90
46217;DHT22;47258;59.424;13.482;2022-07-18T07:36:24;18.50;99.90
46217;DHT22;47258;59.424;13.482;2022-07-18T07:38:52;18.60;99.90
46217;DHT22;47258;59.424;13.482;2022-07-18T07:41:19;18.60;99.90
46217;DHT22;47258;59.424;13.482;2022-07-18T07:43:46;18.70;99.90
46217;DHT22;47258;59.424;13.482;2022-07-18T07:46:13;18.70;99.90
46217;DHT22;47258;59.424;13.482;2022-07-18T07:48:40;18.70;99.90
46217;DHT22;47258;59.424;13.482;2022-07-18T07:51:09;18.80;99.90
46217;DHT22;47258;59.424;13.482;2022-07-18T07:53:36;18.90;99.90
46217;DHT22;47258;59.424;13.482;2022-07-18T07:56:04;19.00;99.90
46217;DHT22;47258;59.424;13.482;2022-07-18T07:58:31;19.20;99.90
46217;DHT22;47258;59.424;13.482;2022-07-18T08:00:58;19.30;99.90
46217;DHT22;47258;59.424;13.482;2022-07-18T08:03:25;19.50;99.90
46217;DHT22;47258;59.424;13.482;2022-07-18T08:05:52;19.50;99.90
46217;DHT22;47258;59.424;13.482;2022-07-18T08:08:19;19.60;99.90
46217;DHT22;47258;59.424;13.482;2022-07-18T08:10:46;19.60;99.90
46217;DHT22;47258;59.424;13.482;2022-07-18T08:13:16;19.60;99.90
46217;DHT22;47258;59.424;13.482;2022-07-18T08:15:43;19.70;99.90
46217;DHT22;47258;59.424;13.482;2022-07-18T08:18:10;19.70;99.90
46217;DHT22;47258;59.424;13.482;2022-07-18T08:20:37;19.80;99.90
46217;DHT22;47258;59.424;13.482;2022-07-18T08:23:05;20.00;99.90
46217;DHT22;47258;59.424;13.482;2022-07-18T08:25:35;20.10;99.90
46217;DHT22;47258;59.424;13.482;2022-07-18T08:28:03;20.10;99.90
46217;DHT22;47258;59.424;13.482;2022-07-18T08:30:33;20.20;99.90
46217;DHT22;47258;59.424;13.482;2022-07-18T08:33:00;20.20;99.90
46217;DHT22;47258;59.424;13.482;2022-07-18T08:35:28;20.40;99.90
46217;DHT22;47258;59.424;13.482;2022-07-18T08:37:55;20.40;99.90
46217;DHT22;47258;59.424;13.482;2022-07-18T08:40:22;20.50;99.90
46217;DHT22;47258;59.424;13.482;2022-07-18T08:42:51;20.50;99.90
46217;DHT22;47258;59.424;13.482;2022-07-18T08:45:20;20.50;99.90
46217;DHT22;47258;59.424;13.482;2022-07-18T08:47:49;20.50;99.90
46217;DHT22;47258;59.424;13.482;2022-07-18T08:50:16;20.60;99.90
46217;DHT22;47258;59.424;13.482;2022-07-18T08:52:44;20.70;99.90
46217;DHT22;47258;59.424;13.482;2022-07-18T08:55:11;20.70;99.90
46217;DHT22;47258;59.424;13.482;2022-07-18T08:57:39;20.80;99.90
46217;DHT22;47258;59.424;13.482;2022-07-18T09:00:09;20.80;99.90
46217;DHT22;47258;59.424;13.482;2022-07-18T09:02:36;20.80;99.90
46217;DHT22;47258;59.424;13.482;2022-07-18T09:05:16;20.80;99.90
46217;DHT22;47258;59.424;13.482;2022-07-18T09:07:42;20.90;99.90
46217;DHT22;47258;59.424;13.482;2022-07-18T09:10:10;20.90;99.90
46217;DHT22;47258;59.424;13.482;2022-07-18T09:12:36;20.80;99.90
46217;DHT22;47258;59.424;13.482;2022-07-18T09:15:05;20.80;99.90
46217;DHT22;47258;59.424;13.482;2022-07-18T09:17:34;20.90;99.90
46217;DHT22;47258;59.424;13.482;2022-07-18T09:20:04;20.90;99.90
46217;DHT22;47258;59.424;13.482;2022-07-18T09:22:35;20.90;99.90
46217;DHT22;47258;59.424;13.482;2022-07-18T09:25:06;21.00;99.90
46217;DHT22;47258;59.424;13.482;2022-07-18T09:27:36;21.00;99.90
46217;DHT22;47258;59.424;13.482;2022-07-18T09:30:16;21.00;99.90
46217;DHT22;47258;59.424;13.482;2022-07-18T09:32:44;21.00;99.90
46217;DHT22;47258;59.424;13.482;2022-07-18T09:35:13;20.90;99.90
46217;DHT22;47258;59.424;13.482;2022-07-18T09:38:01;20.90;99.90
46217;DHT22;47258;59.424;13.482;2022-07-18T09:40:31;20.80;99.90
46217;DHT22;47258;59.424;13.482;2022-07-18T09:42:59;20.80;99.90
46217;DHT22;47258;59.424;13.482;2022-07-18T09:45:28;20.80;99.90
46217;DHT22;47258;59.424;13.482;2022-07-18T09:47:57;20.80;99.90
46217;DHT22;47258;59.424;13.482;2022-07-18T09:50:26;20.80;99.90
46217;DHT22;47258;59.424;13.482;2022-07-18T09:53:07;20.90;99.90
46217;DHT22;47258;59.424;13.482;2022-07-18T09:55:35;20.90;99.90
46217;DHT22;47258;59.424;13.482;2022-07-18T09:58:04;21.00;99.90
46217;DHT22;47258;59.424;13.482;2022-07-18T10:00:33;21.20;99.90
46217;DHT22;47258;59.424;13.482;2022-07-18T10:03:02;21.30;99.90
46217;DHT22;47258;59.424;13.482;2022-07-18T10:05:31;21.40;99.90
46217;DHT22;47258;59.424;13.482;2022-07-18T10:07:59;21.50;99.90
46217;DHT22;47258;59.424;13.482;2022-07-18T10:10:29;21.50;99.90
46217;DHT22;47258;59.424;13.482;2022-07-18T10:12:58;21.60;99.90
46217;DHT22;47258;59.424;13.482;2022-07-18T10:15:28;21.70;99.90
46217;DHT22;47258;59.424;13.482;2022-07-18T10:17:55;21.70;99.90
46217;DHT22;47258;59.424;13.482;2022-07-18T10:20:29;21.60;99.90
46217;DHT22;47258;59.424;13.482;2022-07-18T10:22:59;21.70;99.90
46217;DHT22;47258;59.424;13.482;2022-07-18T10:25:29;21.70;99.90
46217;DHT22;47258;59.424;13.482;2022-07-18T10:28:04;21.80;99.90
46217;DHT22;47258;59.424;13.482;2022-07-18T10:30:41;21.80;99.90
46217;DHT22;47258;59.424;13.482;2022-07-18T10:33:40;21.70;99.90
46217;DHT22;47258;59.424;13.482;2022-07-18T10:36:11;21.90;99.90
46217;DHT22;47258;59.424;13.482;2022-07-18T10:39:03;21.90;99.90
46217;DHT22;47258;59.424;13.482;2022-07-18T10:41:32;22.00;99.90
46217;DHT22;47258;59.424;13.482;2022-07-18T10:43:59;22.00;99.90
46217;DHT22;47258;59.424;13.482;2022-07-18T10:47:04;21.90;99.90
46217;DHT22;47258;59.424;13.482;2022-07-18T10:50:09;21.80;99.90
46217;DHT22;47258;59.424;13.482;2022-07-18T10:52:55;21.80;99.90
46217;DHT22;47258;59.424;13.482;2022-07-18T10:55:27;21.90;99.90
46217;DHT22;47258;59.424;13.482;2022-07-18T10:58:15;21.90;99.90
46217;DHT22;47258;59.424;13.482;2022-07-18T11:00:43;22.00;99.90
46217;DHT22;47258;59.424;13.482;2022-07-18T11:03:16;22.00;99.90
46217;DHT22;47258;59.424;13.482;2022-07-18T11:05:45;22.00;99.90
46217;DHT22;47258;59.424;13.482;2022-07-18T11:08:19;22.00;99.90
46217;DHT22;47258;59.424;13.482;2022-07-18T11:11:14;22.10;99.90
46217;DHT22;47258;59.424;13.482;2022-07-18T11:13:44;22.10;99.90
46217;DHT22;47258;59.424;13.482;2022-07-18T11:16:17;22.20;99.90
46217;DHT22;47258;59.424;13.482;2022-07-18T11:19:19;22.40;99.90
46217;DHT22;47258;59.424;13.482;2022-07-18T11:21:55;22.60;99.90
46217;DHT22;47258;59.424;13.482;2022-07-18T11:24:22;22.70;99.90
46217;DHT22;47258;59.424;13.482;2022-07-18T11:26:49;22.80;99.90
46217;DHT22;47258;59.424;13.482;2022-07-18T11:29:18;22.90;99.90
46217;DHT22;47258;59.424;13.482;2022-07-18T11:31:46;23.00;99.90
46217;DHT22;47258;59.424;13.482;2022-07-18T11:34:14;22.90;99.90
46217;DHT22;47258;59.424;13.482;2022-07-18T11:36:44;23.00;99.90
46217;DHT22;47258;59.424;13.482;2022-07-18T11:39:12;23.10;99.90
46217;DHT22;47258;59.424;13.482;2022-07-18T11:41:40;23.30;99.90
46217;DHT22;47258;59.424;13.482;2022-07-18T11:44:16;23.40;99.90
46217;DHT22;47258;59.424;13.482;2022-07-18T11:46:44;23.60;99.90
46217;DHT22;47258;59.424;13.482;2022-07-18T11:49:11;23.60;99.90
46217;DHT22;47258;59.424;13.482;2022-07-18T11:51:40;23.70;99.90
46217;DHT22;47258;59.424;13.482;2022-07-18T11:54:09;23.80;99.90
46217;DHT22;47258;59.424;13.482;2022-07-18T11:56:45;23.90;99.90
46217;DHT22;47258;59.424;13.482;2022-07-18T11:59:13;24.00;99.90
46217;DHT22;47258;59.424;13.482;2022-07-18T12:01:41;24.00;99.90
46217;DHT22;47258;59.424;13.482;2022-07-18T12:04:17;24.00;99.90
46217;DHT22;47258;59.424;13.482;2022-07-18T12:06:45;24.00;99.90
46217;DHT22;47258;59.424;13.482;2022-07-18T12:09:26;24.00;99.90
46217;DHT22;47258;59.424;13.482;2022-07-18T12:11:53;24.00;99.90
46217;DHT22;47258;59.424;13.482;2022-07-18T12:14:20;24.10;99.90
46217;DHT22;47258;59.424;13.482;2022-07-18T12:16:49;24.10;99.90
46217;DHT22;47258;59.424;13.482;2022-07-18T12:19:32;24.10;99.90
46217;DHT22;47258;59.424;13.482;2022-07-18T12:22:05;24.00;99.90
46217;DHT22;47258;59.424;13.482;2022-07-18T12:24:35;23.90;99.90
46217;DHT22;47258;59.424;13.482;2022-07-18T12:27:14;23.80;99.90
46217;DHT22;47258;59.424;13.482;2022-07-18T12:30:10;23.60;99.90
46217;DHT22;47258;59.424;13.482;2022-07-18T12:32:43;23.60;99.90
46217;DHT22;47258;59.424;13.482;2022-07-18T12:35:15;23.70;99.90
46217;DHT22;47258;59.424;13.482;2022-07-18T12:37:51;23.80;99.90
46217;DHT22;47258;59.424;13.482;2022-07-18T12:40:22;23.70;99.90
46217;DHT22;47258;59.424;13.482;2022-07-18T12:42:49;23.70;99.90
46217;DHT22;47258;59.424;13.482;2022-07-18T12:45:27;23.60;99.90
46217;DHT22;47258;59.424;13.482;2022-07-18T12:47:54;23.60;99.90
46217;DHT22;47258;59.424;13.482;2022-07-18T12:50:21;23.60;99.90
46217;DHT22;47258;59.424;13.482;2022-07-18T12:52:48;23.70;99.90
46217;DHT22;47258;59.424;13.482;2022-07-18T12:55:15;23.80;99.90
46217;DHT22;47258;59.424;13.482;2022-07-18T12:57:44;23.80;99.90
46217;DHT22;47258;59.424;13.482;2022-07-18T13:00:12;23.90;99.90
46217;DHT22;47258;59.424;13.482;2022-07-18T13:02:41;24.00;99.90
46217;DHT22;47258;59.424;13.482;2022-07-18T13:05:08;24.10;99.90
46217;DHT22;47258;59.424;13.482;2022-07-18T13:07:35;24.20;99.90
46217;DHT22;47258;59.424;13.482;2022-07-18T13:10:03;24.30;99.90
46217;DHT22;47258;59.424;13.482;2022-07-18T13:12:30;24.50;99.90
46217;DHT22;47258;59.424;13.482;2022-07-18T13:14:59;24.50;99.90
46217;DHT22;47258;59.424;13.482;2022-07-18T13:17:26;24.50;99.90
46217;DHT22;47258;59.424;13.482;2022-07-18T13:19:52;24.50;99.90
46217;DHT22;47258;59.424;13.482;2022-07-18T13:22:19;24.50;99.90
46217;DHT22;47258;59.424;13.482;2022-07-18T13:24:47;24.50;99.90
46217;DHT22;47258;59.424;13.482;2022-07-18T13:27:14;24.50;99.90
46217;DHT22;47258;59.424;13.482;2022-07-18T13:29:43;24.50;99.90
46217;DHT22;47258;59.424;13.482;2022-07-18T13:32:12;24.50;99.90
46217;DHT22;47258;59.424;13.482;2022-07-18T13:34:39;24.50;99.90
46217;DHT22;47258;59.424;13.482;2022-07-18T13:37:06;24.50;99.90
46217;DHT22;47258;59.424;13.482;2022-07-18T13:39:33;24.50;99.90
46217;DHT22;47258;59.424;13.482;2022-07-18T13:42:00;24.50;99.90
46217;DHT22;47258;59.424;13.482;2022-07-18T13:44:28;24.60;99.90
46217;DHT22;47258;59.424;13.482;2022-07-18T13:46:55;24.60;99.90
46217;DHT22;47258;59.424;13.482;2022-07-18T13:49:23;24.60;99.90
46217;DHT22;47258;59.424;13.482;2022-07-18T13:51:50;24.60;99.90
46217;DHT22;47258;59.424;13.482;2022-07-18T13:54:17;24.60;99.90
46217;DHT22;47258;59.424;13.482;2022-07-18T13:56:44;24.60;99.90
46217;DHT22;47258;59.424;13.482;2022-07-18T13:59:12;24.70;99.90
46217;DHT22;47258;59.424;13.482;2022-07-18T14:01:40;24.80;99.90
46217;DHT22;47258;59.424;13.482;2022-07-18T14:04:08;24.80;99.90
46217;DHT22;47258;59.424;13.482;2022-07-18T14:06:36;24.80;99.90
46217;DHT22;47258;59.424;13.482;2022-07-18T14:09:04;24.80;99.90
46217;DHT22;47258;59.424;13.482;2022-07-18T14:11:31;24.80;99.90
46217;DHT22;47258;59.424;13.482;2022-07-18T14:13:59;24.90;99.90
46217;DHT22;47258;59.424;13.482;2022-07-18T14:16:26;25.00;99.90
46217;DHT22;47258;59.424;13.482;2022-07-18T14:18:53;25.00;99.90
46217;DHT22;47258;59.424;13.482;2022-07-18T14:21:20;25.00;99.90
46217;DHT22;47258;59.424;13.482;2022-07-18T14:23:48;25.00;99.90
46217;DHT22;47258;59.424;13.482;2022-07-18T14:26:15;25.00;99.90
46217;DHT22;47258;59.424;13.482;2022-07-18T14:28:42;25.00;99.90
46217;DHT22;47258;59.424;13.482;2022-07-18T14:31:09;25.10;99.90
46217;DHT22;47258;59.424;13.482;2022-07-18T14:33:36;25.10;99.90
46217;DHT22;47258;59.424;13.482;2022-07-18T14:36:04;25.10;99.90
46217;DHT22;47258;59.424;13.482;2022-07-18T14:38:31;25.10;99.90
46217;DHT22;47258;59.424;13.482;2022-07-18T14:40:59;25.10;99.90
46217;DHT22;47258;59.424;13.482;2022-07-18T14:43:26;25.10;99.90
46217;DHT22;47258;59.424;13.482;2022-07-18T14:45:54;25.00;99.90
46217;DHT22;47258;59.424;13.482;2022-07-18T14:48:22;25.00;99.90
46217;DHT22;47258;59.424;13.482;2022-07-18T14:50:49;24.90;99.90
46217;DHT22;47258;59.424;13.482;2022-07-18T14:53:16;24.90;99.90
46217;DHT22;47258;59.424;13.482;2022-07-18T14:55:44;24.90;99.90
46217;DHT22;47258;59.424;13.482;2022-07-18T14:58:12;24.90;99.90
46217;DHT22;47258;59.424;13.482;2022-07-18T15:00:39;24.80;99.90
46217;DHT22;47258;59.424;13.482;2022-07-18T15:03:06;24.80;99.90
46217;DHT22;47258;59.424;13.482;2022-07-18T15:05:33;24.70;99.90
46217;DHT22;47258;59.424;13.482;2022-07-18T15:08:00;24.80;99.90
46217;DHT22;47258;59.424;13.482;2022-07-18T15:10:27;24.80;99.90
46217;DHT22;47258;59.424;13.482;2022-07-18T15:12:54;24.80;99.90
46217;DHT22;47258;59.424;13.482;2022-07-18T15:15:23;24.90;99.90
46217;DHT22;47258;59.424;13.482;2022-07-18T15:17:50;25.00;99.90
46217;DHT22;47258;59.424;13.482;2022-07-18T15:20:17;25.00;99.90
46217;DHT22;47258;59.424;13.482;2022-07-18T15:22:44;25.00;99.90
46217;DHT22;47258;59.424;13.482;2022-07-18T15:25:11;25.00;99.90